createdAt,value
2019-03-30T00:04:10.979Z,26.44
2019-03-30T00:09:19.887Z,27.93
2019-03-30T00:14:28.782Z,35.61
2019-03-30T00:19:37.620Z,30.13
2019-03-30T00:24:46.471Z,27.98
2019-03-30T00:29:55.386Z,27.86
2019-03-30T00:35:04.348Z,27.14
2019-03-30T00:40:13.310Z,27.64
2019-03-30T00:45:22.177Z,25.69
2019-03-30T00:50:31.591Z,27.63
2019-03-30T00:55:40.434Z,25.32
2019-03-30T01:00:49.312Z,25.42
2019-03-30T01:05:58.400Z,25.29
2019-03-30T01:11:07.113Z,24.10
2019-03-30T01:16:16.040Z,25.10
2019-03-30T01:21:25.047Z,25.14
2019-03-30T01:26:33.926Z,22.99
2019-03-30T01:31:42.799Z,21.67
2019-03-30T01:36:51.781Z,21.96
2019-03-30T01:42:00.658Z,23.46
2019-03-30T01:47:09.538Z,25.16
2019-03-30T01:52:18.447Z,25.37
2019-03-30T01:57:27.410Z,23.80
2019-03-30T02:02:36.399Z,23.30
2019-03-30T02:07:48.273Z,22.29
2019-03-30T02:12:47.117Z,19.58
2019-03-30T02:17:56.031Z,20.05
2019-03-30T02:23:05.407Z,15.20
2019-03-30T02:28:14.339Z,13.18
2019-03-30T02:33:23.220Z,12.84
2019-03-30T02:38:32.140Z,14.27
2019-03-30T02:43:41.008Z,14.35
2019-03-30T02:48:49.860Z,15.44
2019-03-30T02:53:58.756Z,20.10
2019-03-30T02:59:07.628Z,18.02
2019-03-30T03:04:16.564Z,16.03
2019-03-30T03:09:25.407Z,15.06
2019-03-30T03:14:34.369Z,15.52
2019-03-30T03:19:43.213Z,16.65
2019-03-30T03:29:59.567Z,16.49
2019-03-30T03:35:08.539Z,19.00
2019-03-30T03:40:17.423Z,19.92
2019-03-30T03:45:26.282Z,20.13
2019-03-30T03:50:35.547Z,30.47
2019-03-30T03:55:44.438Z,36.59
2019-03-30T04:00:53.274Z,46.06
2019-03-30T04:06:02.212Z,57.00
2019-03-30T04:11:11.084Z,95.91
2019-03-30T04:16:19.953Z,115.72
2019-03-30T04:21:42.848Z,107.23
2019-03-30T04:26:37.297Z,90.63
2019-03-30T04:31:47.170Z,91.73
2019-03-30T04:36:56.107Z,84.78
2019-03-30T04:42:05.362Z,71.81
2019-03-30T04:47:14.271Z,91.01
2019-03-30T04:52:23.125Z,77.74
2019-03-30T04:57:32.234Z,93.35
2019-03-30T05:02:41.086Z,68.75
2019-03-30T05:07:49.982Z,66.53
2019-03-30T05:12:58.840Z,54.98
2019-03-30T05:18:07.768Z,72.53
2019-03-30T05:23:16.651Z,65.14
2019-03-30T05:28:25.603Z,77.28
2019-03-30T05:33:34.491Z,59.55
2019-03-30T05:38:43.372Z,69.88
2019-03-30T05:43:55.609Z,60.14
2019-03-30T05:48:54.517Z,52.67
2019-03-30T05:54:03.453Z,56.88
2019-03-30T05:59:12.348Z,64.43
2019-03-30T06:04:21.266Z,56.45
2019-03-30T06:09:30.478Z,44.89
2019-03-30T06:14:39.360Z,52.37
2019-03-30T06:19:48.386Z,39.36
2019-03-30T06:24:57.256Z,56.34
2019-03-30T06:30:06.466Z,45.13
2019-03-30T06:35:15.566Z,44.24
2019-03-30T06:40:24.482Z,51.62
2019-03-30T06:45:33.335Z,50.71
2019-03-30T06:50:42.279Z,58.80
2019-03-30T06:55:51.167Z,55.43
2019-03-30T07:01:01.070Z,58.27
2019-03-30T07:06:09.908Z,40.95
2019-03-30T07:11:21.270Z,36.04
2019-03-30T07:16:27.183Z,38.26
2019-03-30T07:21:36.036Z,42.38
2019-03-30T07:26:46.025Z,51.55
2019-03-30T07:31:54.899Z,77.93
2019-03-30T07:37:03.796Z,63.52
2019-03-30T07:42:12.698Z,50.23
2019-03-30T07:47:21.606Z,38.32
2019-03-30T07:52:30.499Z,31.70
2019-03-30T07:57:39.479Z,28.50
2019-03-30T08:02:48.387Z,30.22
2019-03-30T08:07:57.250Z,33.29
2019-03-30T08:13:06.130Z,33.94
2019-03-30T08:18:15.070Z,34.09
2019-03-30T08:23:24.353Z,34.56
2019-03-30T08:28:33.304Z,36.39
2019-03-30T08:33:42.185Z,37.94
2019-03-30T08:38:51.456Z,40.73
2019-03-30T08:44:00.361Z,39.12
2019-03-30T08:49:09.207Z,41.39
2019-03-30T08:54:18.047Z,42.94
2019-03-30T08:59:27.085Z,44.92
2019-03-30T09:04:36.508Z,42.03
2019-03-30T09:09:45.499Z,43.74
2019-03-30T09:14:54.355Z,41.81
2019-03-30T09:20:03.262Z,37.28
2019-03-30T09:25:12.166Z,38.94
2019-03-30T09:30:21.163Z,38.01
2019-03-30T09:35:30.206Z,41.89
2019-03-30T09:40:39.103Z,44.28
2019-03-30T09:45:47.971Z,45.62
2019-03-30T09:50:56.804Z,48.57
2019-03-30T09:56:05.707Z,49.73
2019-03-30T10:01:18.464Z,50.10
2019-03-30T10:06:17.361Z,53.43
2019-03-30T10:11:26.755Z,53.25
2019-03-30T10:16:33.266Z,54.41
2019-03-30T10:21:42.157Z,53.46
2019-03-30T10:26:51.182Z,54.00
2019-03-30T10:32:00.170Z,56.07
2019-03-30T10:37:08.968Z,56.13
2019-03-30T10:42:17.867Z,56.56
2019-03-30T10:47:27.045Z,56.59
2019-03-30T10:52:36.424Z,59.11
2019-03-30T10:57:45.291Z,59.53
2019-03-30T11:02:54.205Z,53.42
2019-03-30T11:08:03.300Z,48.10
2019-03-30T11:13:12.312Z,44.70
2019-03-30T11:18:21.235Z,43.42
2019-03-30T11:23:30.175Z,42.37
2019-03-30T11:28:39.159Z,41.00
2019-03-30T11:33:48.060Z,36.64
2019-03-30T11:38:57.010Z,32.54
2019-03-30T11:44:06.319Z,32.29
2019-03-30T11:49:15.215Z,26.43
2019-03-30T11:54:24.126Z,17.54
2019-03-30T11:59:33.010Z,16.79
2019-03-30T12:04:41.866Z,15.71
2019-03-30T12:09:50.732Z,15.89
2019-03-30T12:14:59.626Z,16.66
2019-03-30T12:20:08.586Z,15.63
2019-03-30T12:25:17.422Z,17.97
2019-03-30T12:30:26.756Z,17.09
2019-03-30T12:35:34.678Z,18.08
2019-03-30T12:40:43.702Z,20.10
2019-03-30T12:45:52.836Z,21.46
2019-03-30T12:51:01.836Z,19.72
2019-03-30T12:56:10.657Z,24.48
2019-03-30T13:01:20.592Z,25.97
2019-03-30T13:06:33.362Z,19.96
2019-03-30T13:11:32.268Z,27.79
2019-03-30T13:16:41.122Z,22.59
2019-03-30T13:21:53.157Z,19.42
2019-03-30T13:26:58.856Z,20.33
2019-03-30T13:32:07.771Z,20.92
2019-03-30T13:37:16.944Z,19.23
2019-03-30T13:42:25.839Z,17.39
2019-03-30T13:47:34.731Z,17.98
2019-03-30T13:52:43.614Z,16.58
2019-03-30T13:57:52.500Z,17.87
2019-03-30T14:03:01.435Z,15.77
2019-03-30T14:08:10.384Z,17.47
2019-03-30T14:13:19.286Z,17.46
2019-03-30T14:18:28.146Z,18.28
2019-03-30T14:23:37.025Z,18.87
2019-03-30T14:28:45.902Z,16.96
2019-03-30T14:33:54.832Z,15.41
2019-03-30T14:39:03.735Z,19.53
2019-03-30T14:44:12.643Z,19.52
2019-03-30T14:49:21.575Z,20.19
2019-03-30T14:54:30.479Z,18.69
2019-03-30T14:59:39.405Z,18.67
2019-03-30T15:04:48.315Z,18.49
2019-03-30T15:09:57.216Z,19.61
2019-03-30T15:15:06.155Z,18.16
2019-03-30T15:20:15.059Z,18.90
2019-03-30T15:25:23.952Z,18.33
2019-03-30T15:30:32.876Z,17.03
2019-03-30T15:35:43.248Z,16.17
2019-03-30T15:40:42.144Z,16.85
2019-03-30T15:45:51.364Z,18.33
2019-03-30T15:51:00.272Z,19.58
2019-03-30T15:56:09.205Z,19.98
2019-03-30T16:01:18.167Z,19.98
2019-03-30T16:06:27.132Z,18.65
2019-03-30T16:11:36.567Z,20.31
2019-03-30T16:16:50.531Z,20.57
2019-03-30T16:21:49.896Z,20.58
2019-03-30T16:26:58.880Z,22.85
2019-03-30T16:32:07.848Z,23.33
2019-03-30T16:37:16.913Z,19.65
2019-03-30T16:42:26.042Z,22.14
2019-03-30T16:47:33.487Z,21.28
2019-03-30T16:52:42.486Z,20.47
2019-03-30T16:57:51.484Z,24.23
2019-03-30T17:03:00.537Z,22.98
2019-03-30T17:08:09.588Z,22.75
2019-03-30T17:13:18.607Z,20.28
2019-03-30T17:18:27.631Z,23.90
2019-03-30T17:23:36.657Z,19.23
2019-03-30T17:28:45.720Z,21.31
2019-03-30T17:33:54.625Z,20.10
2019-03-30T17:39:03.490Z,20.96
2019-03-30T17:44:12.426Z,22.74
2019-03-30T17:49:21.298Z,21.11
2019-03-30T17:54:30.192Z,21.83
2019-03-30T17:59:39.029Z,21.17
2019-03-30T18:04:47.941Z,22.22
2019-03-30T18:09:56.794Z,140.25
2019-03-30T18:15:05.702Z,71.83
2019-03-30T18:20:14.590Z,170.47
2019-03-30T18:25:23.498Z,100.97
2019-03-30T18:30:32.399Z,60.24
2019-03-30T18:35:41.256Z,78.15
2019-03-30T18:40:50.210Z,46.11
2019-03-30T18:45:59.074Z,43.29
2019-03-30T18:51:07.960Z,29.37
2019-03-30T18:56:16.815Z,27.30
2019-03-30T19:01:29.245Z,24.15
2019-03-30T19:06:28.026Z,25.29
2019-03-30T19:11:36.911Z,24.46
2019-03-30T19:16:45.757Z,24.66
2019-03-30T19:21:54.669Z,24.16
2019-03-30T19:27:03.540Z,23.90
2019-03-30T19:32:12.404Z,22.52
2019-03-30T19:37:21.291Z,17.64
2019-03-30T19:42:30.142Z,18.24
2019-03-30T19:47:39.094Z,24.20
2019-03-30T19:52:48.458Z,28.68
2019-03-30T19:57:57.324Z,19.73
2019-03-30T20:03:06.650Z,16.56
2019-03-30T20:08:15.612Z,16.26
2019-03-30T20:13:28.336Z,16.93
2019-03-30T20:18:25.978Z,17.57
2019-03-30T20:23:33.426Z,17.92
2019-03-30T20:28:42.359Z,18.36
2019-03-30T20:33:51.220Z,18.33
2019-03-30T20:39:00.092Z,20.23
2019-03-30T20:44:08.963Z,20.83
2019-03-30T20:49:17.803Z,22.33
2019-03-30T20:54:26.842Z,23.76
2019-03-30T20:59:40.104Z,24.37
2019-03-30T21:04:44.173Z,18.77
2019-03-30T21:09:53.080Z,25.98
2019-03-30T21:15:03.494Z,38.05
2019-03-30T21:20:02.460Z,25.34
2019-03-30T21:25:11.407Z,26.90
2019-03-30T21:30:20.399Z,28.30
2019-03-30T21:35:29.409Z,24.51
2019-03-30T21:40:39.854Z,26.04
2019-03-30T21:45:38.806Z,27.93
2019-03-30T21:50:47.702Z,25.77
2019-03-30T21:55:56.579Z,27.05
2019-03-30T22:01:05.823Z,26.27
2019-03-30T22:06:14.726Z,27.49
2019-03-30T22:11:26.722Z,26.65
2019-03-30T22:16:25.668Z,28.07
2019-03-30T22:21:34.610Z,30.42
2019-03-30T22:26:43.822Z,30.83
2019-03-30T22:31:52.912Z,29.84
2019-03-30T22:37:02.101Z,29.08
2019-03-30T22:42:11.071Z,29.72
2019-03-30T22:47:19.976Z,28.49
2019-03-30T22:52:28.877Z,27.51
2019-03-30T22:57:37.976Z,29.94
2019-03-30T23:02:46.834Z,30.74
2019-03-30T23:07:56.793Z,32.79
2019-03-30T23:13:05.678Z,32.15
2019-03-30T23:18:17.386Z,34.47
2019-03-30T23:23:16.219Z,33.29
2019-03-30T23:28:25.116Z,34.66
2019-03-30T23:33:34.119Z,33.84
2019-03-30T23:38:43.096Z,32.28
2019-03-30T23:43:51.962Z,34.11
2019-03-30T23:49:01.072Z,32.33
2019-03-30T23:54:09.839Z,34.39
2019-03-30T23:59:18.763Z,33.23
